createdAt,value
2023-04-12T00:00:11.853Z,2.20
2023-04-12T00:02:42.423Z,4.43
2023-04-12T00:05:14.220Z,3.15
2023-04-12T00:10:11.664Z,2.63
2023-04-12T00:12:40.916Z,4.10
2023-04-12T00:15:10.230Z,2.72
2023-04-12T00:17:38.462Z,4.03
2023-04-12T00:20:12.631Z,2.85
2023-04-12T00:22:42.735Z,2.85
2023-04-12T00:25:11.753Z,4.15
2023-04-12T00:27:40.756Z,2.70
2023-04-12T00:30:09.834Z,4.65
2023-04-12T00:32:38.084Z,3.67
2023-04-12T00:35:07.051Z,3.65
2023-04-12T00:37:36.619Z,3.47
2023-04-12T00:40:10.383Z,3.75
2023-04-12T00:42:39.113Z,1.90
2023-04-12T00:45:08.360Z,2.13
2023-04-12T00:47:37.805Z,4.38
2023-04-12T00:50:08.498Z,4.32
2023-04-12T00:52:37.664Z,5.57
2023-04-12T00:55:09.810Z,4.88
2023-04-12T00:57:39.474Z,1.77
2023-04-12T01:00:12.820Z,2.33
2023-04-12T01:02:47.687Z,4.75
2023-04-12T01:05:22.828Z,4.30
2023-04-12T01:08:06.266Z,2.67
2023-04-12T01:10:45.039Z,4.25
2023-04-12T01:13:26.189Z,1.73
2023-04-12T01:15:59.789Z,2.83
2023-04-12T01:18:31.732Z,3.70
2023-04-12T01:21:07.996Z,2.53
2023-04-12T01:23:53.153Z,3.38
2023-04-12T01:26:42.542Z,3.03
2023-04-12T01:29:14.471Z,3.78
2023-04-12T01:31:46.298Z,1.73
2023-04-12T01:34:16.637Z,2.83
2023-04-12T01:36:47.306Z,1.52
2023-04-12T01:39:16.057Z,1.42
2023-04-12T01:41:45.717Z,1.88
2023-04-12T01:44:18.763Z,2.22
2023-04-12T01:46:48.337Z,2.30
2023-04-12T01:49:18.663Z,1.30
2023-04-12T01:51:53.690Z,2.03
2023-04-12T01:54:26.086Z,1.70
2023-04-12T01:56:58.959Z,2.17
2023-04-12T01:59:33.705Z,2.80
2023-04-12T02:02:03.702Z,2.58
2023-04-12T02:04:32.857Z,3.15
2023-04-12T02:07:01.552Z,1.98
2023-04-12T02:09:29.749Z,3.67
2023-04-12T02:11:58.199Z,2.88
2023-04-12T02:14:27.225Z,4.30
2023-04-12T02:16:58.341Z,2.75
2023-04-12T02:19:27.142Z,2.80
2023-04-12T02:21:55.381Z,2.33
2023-04-12T02:24:23.682Z,2.42
2023-04-12T02:26:51.911Z,2.22
2023-04-12T02:29:20.137Z,2.97
2023-04-12T02:31:48.383Z,2.90
2023-04-12T02:34:18.212Z,3.17
2023-04-12T02:36:48.479Z,2.10
2023-04-12T02:39:18.982Z,1.85
2023-04-12T02:41:47.312Z,3.33
2023-04-12T02:44:15.707Z,1.95
2023-04-12T02:46:43.898Z,1.80
2023-04-12T02:49:12.086Z,2.70
2023-04-12T02:51:42.152Z,2.80
2023-04-12T02:54:10.363Z,1.70
2023-04-12T02:56:38.588Z,1.67
2023-04-12T02:59:06.941Z,2.80
2023-04-12T03:01:35.259Z,3.15
2023-04-12T03:04:03.662Z,5.65
2023-04-12T03:06:32.184Z,3.08
2023-04-12T03:09:01.831Z,5.30
2023-04-12T03:11:29.939Z,4.18
2023-04-12T03:13:58.343Z,2.97
2023-04-12T03:16:30.146Z,3.35
2023-04-12T03:18:59.490Z,3.92
2023-04-12T03:21:28.408Z,4.75
2023-04-12T03:23:56.769Z,5.20
2023-04-12T03:26:26.868Z,3.83
2023-04-12T03:29:01.883Z,4.30
2023-04-12T03:31:31.405Z,5.03
2023-04-12T03:33:59.972Z,2.95
2023-04-12T03:36:29.643Z,3.05
2023-04-12T03:38:57.937Z,3.70
2023-04-12T03:41:28.000Z,3.25
2023-04-12T03:43:56.517Z,1.77
2023-04-12T03:46:25.245Z,2.17
2023-04-12T03:48:53.712Z,1.98
2023-04-12T03:51:22.364Z,2.22
2023-04-12T03:53:51.117Z,3.03
2023-04-12T03:56:21.168Z,2.58
2023-04-12T03:58:51.224Z,2.45
2023-04-12T04:01:19.521Z,2.13
2023-04-12T04:03:48.323Z,2.53
2023-04-12T04:06:17.600Z,1.52
2023-04-12T04:08:46.078Z,1.60
2023-04-12T04:11:14.733Z,2.13
2023-04-12T04:13:43.064Z,2.00
2023-04-12T04:16:13.401Z,2.15
2023-04-12T04:18:41.764Z,2.10
2023-04-12T04:21:10.144Z,1.48
2023-04-12T04:23:39.823Z,2.30
2023-04-12T04:26:10.199Z,2.63
2023-04-12T04:28:38.964Z,3.40
2023-04-12T04:31:07.634Z,3.20
2023-04-12T04:33:37.706Z,2.88
2023-04-12T04:36:07.356Z,4.10
2023-04-12T04:38:35.823Z,2.47
2023-04-12T04:41:04.968Z,7.43
2023-04-12T04:43:34.234Z,5.20
2023-04-12T04:46:02.598Z,3.33
2023-04-12T04:48:31.170Z,3.38
2023-04-12T04:51:02.060Z,4.45
2023-04-12T04:53:30.422Z,3.22
2023-04-12T04:56:02.304Z,3.90
2023-04-12T04:58:30.740Z,4.40
2023-04-12T05:00:59.866Z,3.90
2023-04-12T05:03:30.812Z,4.07
2023-04-12T05:06:01.259Z,4.05
2023-04-12T05:08:29.811Z,3.80
2023-04-12T05:10:58.912Z,3.17
2023-04-12T05:13:27.270Z,2.08
2023-04-12T05:15:55.559Z,3.97
2023-04-12T05:18:23.877Z,1.73
2023-04-12T05:20:52.166Z,3.08
2023-04-12T05:23:21.952Z,2.33
2023-04-12T05:25:50.289Z,2.72
2023-04-12T05:28:18.729Z,1.92
2023-04-12T05:30:47.129Z,2.05
2023-04-12T05:33:15.902Z,1.98
2023-04-12T05:35:44.342Z,2.05
2023-04-12T05:38:12.712Z,2.10
2023-04-12T05:40:44.444Z,4.10
2023-04-12T05:45:41.652Z,3.42
2023-04-12T05:48:10.150Z,4.20
2023-04-12T05:50:38.581Z,3.85
2023-04-12T05:53:06.902Z,2.65
2023-04-12T05:55:37.774Z,3.42
2023-04-12T05:58:08.120Z,5.13
2023-04-12T06:00:37.247Z,5.03
2023-04-12T06:03:05.765Z,4.68
2023-04-12T06:05:35.622Z,7.25
2023-04-12T06:08:05.411Z,5.30
2023-04-12T06:10:33.818Z,5.65
2023-04-12T06:13:02.031Z,3.80
2023-04-12T06:15:32.195Z,4.40
2023-04-12T06:18:00.777Z,5.07
2023-04-12T06:20:29.173Z,5.05
2023-04-12T06:22:57.331Z,10.10
2023-04-12T06:25:26.025Z,5.72
2023-04-12T06:27:54.183Z,6.63
2023-04-12T06:30:22.355Z,4.35
2023-04-12T06:32:52.225Z,6.07
2023-04-12T06:35:21.679Z,5.75
2023-04-12T06:37:49.865Z,5.70
2023-04-12T06:40:18.255Z,5.55
2023-04-12T06:42:46.421Z,5.25
2023-04-12T06:45:14.599Z,5.97
2023-04-12T06:47:42.837Z,3.95
2023-04-12T06:50:13.274Z,5.10
2023-04-12T06:52:41.522Z,4.47
2023-04-12T06:55:10.483Z,4.68
2023-04-12T06:57:38.799Z,3.30
2023-04-12T07:00:08.488Z,5.47
2023-04-12T07:02:36.811Z,3.63
2023-04-12T07:05:05.544Z,3.85
2023-04-12T07:07:35.072Z,5.38
2023-04-12T07:10:04.418Z,4.30
2023-04-12T07:12:32.670Z,4.20
2023-04-12T07:15:01.092Z,3.67
2023-04-12T07:17:29.346Z,3.70
2023-04-12T07:19:57.753Z,2.70
2023-04-12T07:22:26.095Z,4.15
2023-04-12T07:24:55.772Z,3.83
2023-04-12T07:27:24.001Z,2.92
2023-04-12T07:29:53.326Z,4.07
2023-04-12T07:32:21.654Z,4.80
2023-04-12T07:34:49.987Z,5.65
2023-04-12T07:37:19.011Z,5.68
2023-04-12T07:39:47.207Z,6.40
2023-04-12T07:42:16.948Z,4.00
2023-04-12T07:44:45.114Z,3.85
2023-04-12T07:47:13.299Z,4.65
2023-04-12T07:49:41.516Z,2.78
2023-04-12T07:52:09.707Z,2.97
2023-04-12T07:54:38.649Z,3.67
2023-04-12T07:57:08.069Z,3.97
2023-04-12T07:59:37.677Z,2.63
2023-04-12T08:02:06.396Z,3.42
2023-04-12T08:04:34.740Z,3.92
2023-04-12T08:07:02.940Z,3.90
2023-04-12T08:09:31.308Z,3.10
2023-04-12T08:11:59.473Z,5.53
2023-04-12T08:14:27.760Z,3.85
2023-04-12T08:16:57.334Z,2.67
2023-04-12T08:19:26.082Z,3.20
2023-04-12T08:21:54.511Z,3.13
2023-04-12T08:24:22.681Z,2.40
2023-04-12T08:26:52.831Z,2.90
2023-04-12T08:29:21.072Z,1.70
2023-04-12T08:31:49.394Z,1.50
2023-04-12T08:34:18.993Z,1.23
2023-04-12T08:36:47.441Z,2.15
2023-04-12T08:39:15.586Z,3.08
2023-04-12T08:41:44.620Z,2.08
2023-04-12T08:44:13.151Z,2.10
2023-04-12T08:46:42.388Z,3.08
2023-04-12T08:49:12.550Z,2.47
2023-04-12T08:51:43.276Z,2.30
2023-04-12T08:54:11.443Z,3.33
2023-04-12T08:56:41.621Z,3.30
2023-04-12T08:59:11.060Z,2.17
2023-04-12T09:01:42.861Z,1.50
2023-04-12T09:04:11.146Z,1.77
2023-04-12T09:06:41.586Z,1.75
2023-04-12T09:09:10.670Z,3.17
2023-04-12T09:11:38.883Z,1.45
2023-04-12T09:14:23.077Z,2.10
2023-04-12T09:16:51.815Z,2.13
2023-04-12T09:19:33.067Z,3.45
2023-04-12T09:22:03.034Z,1.45
2023-04-12T09:24:31.418Z,1.70
2023-04-12T09:27:04.296Z,2.78
2023-04-12T09:29:34.108Z,2.08
2023-04-12T09:32:04.280Z,2.30
2023-04-12T09:34:33.492Z,2.40
2023-04-12T09:37:14.168Z,1.60
2023-04-12T09:39:42.536Z,2.03
2023-04-12T09:42:29.287Z,1.58
2023-04-12T09:45:01.826Z,2.25
2023-04-12T09:47:40.213Z,1.35
2023-04-12T09:50:10.169Z,2.08
2023-04-12T09:52:40.516Z,4.13
2023-04-12T09:55:11.550Z,2.90
2023-04-12T09:57:42.239Z,2.22
2023-04-12T10:00:14.527Z,1.43
2023-04-12T10:02:45.514Z,2.63
2023-04-12T10:05:17.157Z,2.33
2023-04-12T10:07:48.314Z,2.90
2023-04-12T10:10:18.330Z,2.05
2023-04-12T10:12:48.789Z,1.65
2023-04-12T10:15:18.589Z,5.72
2023-04-12T10:17:48.583Z,1.65
2023-04-12T10:20:18.345Z,1.70
2023-04-12T10:22:49.288Z,2.28
2023-04-12T10:25:19.765Z,1.77
2023-04-12T10:27:49.170Z,1.88
2023-04-12T10:30:22.596Z,2.58
2023-04-12T10:32:51.703Z,2.03
2023-04-12T10:35:20.568Z,1.92
2023-04-12T10:38:03.009Z,1.27
2023-04-12T10:40:32.480Z,2.00
2023-04-12T10:43:28.872Z,1.42
2023-04-12T10:45:58.956Z,1.52
2023-04-12T10:48:34.371Z,1.77
2023-04-12T10:51:23.538Z,2.85
2023-04-12T10:53:53.657Z,1.52
2023-04-12T10:56:39.511Z,2.72
2023-04-12T10:59:08.318Z,2.53
2023-04-12T11:01:38.793Z,2.17
2023-04-12T11:04:14.441Z,3.00
2023-04-12T11:07:01.797Z,3.67
2023-04-12T11:09:41.100Z,2.35
2023-04-12T11:12:16.752Z,2.08
2023-04-12T11:14:47.516Z,2.05
2023-04-12T11:17:26.563Z,3.90
2023-04-12T11:20:00.921Z,1.23
2023-04-12T11:22:30.659Z,1.05
2023-04-12T11:25:02.348Z,2.05
2023-04-12T11:27:31.850Z,1.63
2023-04-12T11:30:01.917Z,5.75
2023-04-12T11:32:31.525Z,2.03
2023-04-12T11:35:00.138Z,2.97
2023-04-12T11:37:28.507Z,1.92
2023-04-12T11:40:00.208Z,1.80
2023-04-12T11:42:30.284Z,1.63
2023-04-12T11:45:01.934Z,2.33
2023-04-12T11:47:33.396Z,2.53
2023-04-12T11:50:01.614Z,2.13
2023-04-12T11:52:31.286Z,1.88
2023-04-12T11:55:05.219Z,1.45
2023-04-12T11:57:35.387Z,1.80
2023-04-12T12:00:06.553Z,3.30
2023-04-12T12:05:18.177Z,1.30
2023-04-12T12:07:46.684Z,1.77
2023-04-12T12:10:27.462Z,1.52
2023-04-12T12:13:01.553Z,1.80
2023-04-12T12:15:31.608Z,2.90
2023-04-12T12:18:02.192Z,4.35
2023-04-12T12:20:31.609Z,1.60
2023-04-12T12:22:59.823Z,2.65
2023-04-12T12:25:30.829Z,3.60
2023-04-12T12:27:59.444Z,2.65
2023-04-12T12:30:31.210Z,2.65
2023-04-12T12:32:59.544Z,2.90
2023-04-12T12:35:28.539Z,2.03
2023-04-12T12:37:59.014Z,2.63
2023-04-12T12:40:32.965Z,3.38
2023-04-12T12:43:01.510Z,2.13
2023-04-12T12:45:30.951Z,1.98
2023-04-12T12:48:02.320Z,3.50
2023-04-12T12:50:33.030Z,3.08
2023-04-12T12:53:02.511Z,3.80
2023-04-12T12:55:32.741Z,2.80
2023-04-12T12:58:08.047Z,3.08
2023-04-12T13:00:37.434Z,1.92
2023-04-12T13:03:06.032Z,2.80
2023-04-12T13:05:34.643Z,2.33
2023-04-12T13:08:03.020Z,3.13
2023-04-12T13:10:32.946Z,2.30
2023-04-12T13:13:01.785Z,4.38
2023-04-12T13:15:30.112Z,2.22
2023-04-12T13:17:58.425Z,3.25
2023-04-12T13:20:27.788Z,2.63
2023-04-12T13:22:56.113Z,2.55
2023-04-12T13:25:24.585Z,2.17
2023-04-12T13:27:54.251Z,2.67
2023-04-12T13:30:22.897Z,2.80
2023-04-12T13:32:51.492Z,3.63
2023-04-12T13:35:19.789Z,3.15
2023-04-12T13:37:47.989Z,3.58
2023-04-12T13:40:16.153Z,2.00
2023-04-12T13:42:44.341Z,3.65
2023-04-12T13:45:14.127Z,3.42
2023-04-12T13:47:42.362Z,3.30
2023-04-12T13:50:11.425Z,3.28
2023-04-12T13:52:39.610Z,3.33
2023-04-12T13:55:09.313Z,3.80
2023-04-12T13:57:37.634Z,4.47
2023-04-12T14:00:07.065Z,3.67
2023-04-12T14:02:36.749Z,4.15
2023-04-12T14:05:05.557Z,3.00
2023-04-12T14:07:34.094Z,2.60
2023-04-12T14:10:02.297Z,3.47
2023-04-12T14:12:30.477Z,3.58
2023-04-12T14:14:58.644Z,2.22
2023-04-12T14:17:32.337Z,3.38
2023-04-12T14:20:02.335Z,2.20
2023-04-12T14:22:30.606Z,3.33
2023-04-12T14:24:58.843Z,3.75
2023-04-12T14:27:27.299Z,3.55
2023-04-12T14:29:55.493Z,3.10
2023-04-12T14:32:23.762Z,6.53
2023-04-12T14:34:52.119Z,3.55
2023-04-12T14:37:21.877Z,5.10
2023-04-12T14:39:50.212Z,4.15
2023-04-12T14:42:18.449Z,5.20
2023-04-12T14:44:46.624Z,4.82
2023-04-12T14:47:14.838Z,5.10
2023-04-12T14:49:43.020Z,4.85
2023-04-12T14:52:11.230Z,4.40
2023-04-12T14:54:41.470Z,6.03
2023-04-12T14:57:09.759Z,2.97
2023-04-12T14:59:38.041Z,6.22
2023-04-12T15:02:06.914Z,3.38
2023-04-12T15:04:35.230Z,3.60
2023-04-12T15:07:03.485Z,4.72
2023-04-12T15:09:32.036Z,4.60
2023-04-12T15:12:02.004Z,2.70
2023-04-12T15:14:30.269Z,4.47
2023-04-12T15:16:58.564Z,4.35
2023-04-12T15:19:27.296Z,4.00
2023-04-12T15:21:56.474Z,6.15
2023-04-12T15:24:25.100Z,4.75
2023-04-12T15:26:53.793Z,5.13
2023-04-12T15:29:24.374Z,4.18
2023-04-12T15:31:52.932Z,3.73
2023-04-12T15:34:23.695Z,4.47
2023-04-12T15:36:52.116Z,3.10
2023-04-12T15:39:21.255Z,3.38
2023-04-12T15:41:49.611Z,6.80
2023-04-12T15:44:17.834Z,5.55
2023-04-12T15:46:59.364Z,5.50
2023-04-12T15:49:36.048Z,3.20
2023-04-12T15:52:04.813Z,5.03
2023-04-12T15:54:33.024Z,4.13
2023-04-12T15:57:02.654Z,2.88
2023-04-12T15:59:31.025Z,5.35
2023-04-12T16:02:00.761Z,4.57
2023-04-12T16:04:29.213Z,3.85
2023-04-12T16:07:01.960Z,3.50
2023-04-12T16:09:32.323Z,3.72
2023-04-12T16:12:01.902Z,4.50
2023-04-12T16:14:30.070Z,2.78
2023-04-12T16:16:59.320Z,5.32
2023-04-12T16:19:28.943Z,5.20
2023-04-12T16:21:57.941Z,4.85
2023-04-12T16:24:26.249Z,3.97
2023-04-12T16:26:54.444Z,3.55
2023-04-12T16:29:22.662Z,4.15
2023-04-12T16:31:51.644Z,5.28
2023-04-12T16:34:21.980Z,5.65
2023-04-12T16:36:53.083Z,4.45
2023-04-12T16:39:21.565Z,5.85
2023-04-12T16:41:49.739Z,4.47
2023-04-12T16:44:19.260Z,4.78
2023-04-12T16:46:48.877Z,6.30
2023-04-12T16:49:19.633Z,4.72
2023-04-12T16:51:48.077Z,4.50
2023-04-12T16:54:17.780Z,5.07
2023-04-12T16:56:47.255Z,5.38
2023-04-12T16:59:15.592Z,5.43
2023-04-12T17:01:44.297Z,4.72
2023-04-12T17:04:12.956Z,4.47
2023-04-12T17:06:42.768Z,2.38
2023-04-12T17:09:11.030Z,2.40
2023-04-12T17:11:40.668Z,1.80
2023-04-12T17:14:09.369Z,1.58
2023-04-12T17:16:37.795Z,1.45
2023-04-12T17:19:06.580Z,1.50
2023-04-12T17:21:42.123Z,1.70
2023-04-12T17:24:10.966Z,2.35
2023-04-12T17:26:40.663Z,3.95
2023-04-12T17:29:09.322Z,2.65
2023-04-12T17:31:39.355Z,6.32
2023-04-12T17:34:08.060Z,2.53
2023-04-12T17:36:36.256Z,2.78
2023-04-12T17:39:04.859Z,2.15
2023-04-12T17:41:33.088Z,1.90
2023-04-12T17:44:02.841Z,3.20
2023-04-12T17:46:31.047Z,1.90
2023-04-12T17:49:00.191Z,2.75
2023-04-12T17:51:29.340Z,2.97
2023-04-12T17:53:58.446Z,2.28
2023-04-12T17:56:27.314Z,2.50
2023-04-12T17:58:55.964Z,3.92
2023-04-12T18:01:25.639Z,1.60
2023-04-12T18:03:54.123Z,3.00
2023-04-12T18:06:24.020Z,3.15
2023-04-12T18:08:52.630Z,6.47
2023-04-12T18:11:21.025Z,2.78
2023-04-12T18:13:49.301Z,2.67
2023-04-12T18:16:17.498Z,3.83
2023-04-12T18:18:47.095Z,4.85
2023-04-12T18:21:20.927Z,3.33
2023-04-12T18:23:49.144Z,2.67
2023-04-12T18:26:17.340Z,4.00
2023-04-12T18:28:45.605Z,3.28
2023-04-12T18:31:13.858Z,3.38
2023-04-12T18:33:42.132Z,3.80
2023-04-12T18:36:12.292Z,4.45
2023-04-12T18:38:40.478Z,2.58
2023-04-12T18:41:13.943Z,2.15
2023-04-12T18:43:42.196Z,3.10
2023-04-12T18:46:16.496Z,3.63
2023-04-12T18:48:45.648Z,2.65
2023-04-12T18:51:15.862Z,2.78
2023-04-12T18:53:44.071Z,2.65
2023-04-12T18:56:13.846Z,4.57
2023-04-12T18:58:54.415Z,7.90
2023-04-12T19:01:24.435Z,2.20
2023-04-12T19:03:52.942Z,1.98
2023-04-12T19:06:22.558Z,1.83
2023-04-12T19:08:50.923Z,2.92
2023-04-12T19:11:19.171Z,1.95
2023-04-12T19:13:47.386Z,10.98
2023-04-12T19:16:15.694Z,2.58
2023-04-12T19:18:43.979Z,1.98
2023-04-12T19:21:12.281Z,2.47
2023-04-12T19:23:42.317Z,2.80
2023-04-12T19:26:11.598Z,2.60
2023-04-12T19:28:40.049Z,1.58
2023-04-12T19:31:10.590Z,3.85
2023-04-12T19:33:41.083Z,3.33
2023-04-12T19:36:09.630Z,3.42
2023-04-12T19:38:41.327Z,1.20
2023-04-12T19:41:11.041Z,0.93
2023-04-12T19:43:39.334Z,0.63
2023-04-12T19:46:07.640Z,1.85
2023-04-12T19:48:36.078Z,2.08
2023-04-12T19:51:05.249Z,1.42
2023-04-12T19:53:34.149Z,0.88
2023-04-12T19:56:04.236Z,0.90
2023-04-12T19:58:34.644Z,0.68
2023-04-12T20:01:03.326Z,0.45
2023-04-12T20:03:32.854Z,0.30
2023-04-12T20:06:04.454Z,0.60
2023-04-12T20:08:33.187Z,0.38
2023-04-12T20:11:02.745Z,0.30
2023-04-12T20:13:31.478Z,0.45
2023-04-12T20:16:01.954Z,0.00
2023-04-12T20:18:30.474Z,0.40
2023-04-12T20:20:58.910Z,0.47
2023-04-12T20:23:27.287Z,1.45
2023-04-12T20:25:55.665Z,1.38
2023-04-12T20:28:24.008Z,0.63
2023-04-12T20:30:52.578Z,0.30
2023-04-12T20:33:22.233Z,0.45
2023-04-12T20:35:51.314Z,0.52
2023-04-12T20:38:19.592Z,0.25
2023-04-12T20:40:47.887Z,1.70
2023-04-12T20:43:16.649Z,0.35
2023-04-12T20:45:47.083Z,0.77
2023-04-12T20:48:15.563Z,0.43
2023-04-12T20:50:45.850Z,0.32
2023-04-12T20:53:15.747Z,0.60
2023-04-12T20:55:44.289Z,0.52
2023-04-12T20:58:13.329Z,1.10
2023-04-12T21:00:41.886Z,0.30
2023-04-12T21:03:11.005Z,0.60
2023-04-12T21:05:39.865Z,0.93
2023-04-12T21:08:10.205Z,0.20
2023-04-12T21:10:38.410Z,0.30
2023-04-12T21:13:07.502Z,1.65
2023-04-12T21:15:36.516Z,0.35
2023-04-12T21:18:04.841Z,0.35
2023-04-12T21:20:34.240Z,1.20
2023-04-12T21:23:04.697Z,0.45
2023-04-12T21:25:35.645Z,1.13
2023-04-12T21:28:04.476Z,1.25
2023-04-12T21:30:32.729Z,0.75
2023-04-12T21:33:02.279Z,1.08
2023-04-12T21:35:31.448Z,1.02
2023-04-12T21:37:59.663Z,0.93
2023-04-12T21:40:28.353Z,0.50
2023-04-12T21:42:58.316Z,0.73
2023-04-12T21:45:27.449Z,0.88
2023-04-12T21:47:55.968Z,0.32
2023-04-12T21:50:24.680Z,0.50
2023-04-12T21:52:55.803Z,0.35
2023-04-12T21:55:24.183Z,0.17
2023-04-12T21:57:53.062Z,0.30
2023-04-12T22:00:36.949Z,0.45
2023-04-12T22:03:05.590Z,0.47
2023-04-12T22:05:35.914Z,0.57
2023-04-12T22:08:04.142Z,1.25
2023-04-12T22:10:34.543Z,0.63
2023-04-12T22:13:02.837Z,0.28
2023-04-12T22:15:32.702Z,0.70
2023-04-12T22:18:01.273Z,0.30
2023-04-12T22:20:29.596Z,0.73
2023-04-12T22:22:58.261Z,0.20
2023-04-12T22:25:27.118Z,1.30
2023-04-12T22:27:57.850Z,0.88
2023-04-12T22:30:26.263Z,0.77
2023-04-12T22:32:55.928Z,0.55
2023-04-12T22:35:25.833Z,0.32
2023-04-12T22:37:54.300Z,0.20
2023-04-12T22:40:22.575Z,0.75
2023-04-12T22:42:50.767Z,0.90
2023-04-12T22:45:19.224Z,1.13
2023-04-12T22:47:47.664Z,0.13
2023-04-12T22:50:17.368Z,1.30
2023-04-12T22:52:45.609Z,0.25
2023-04-12T22:55:16.945Z,1.08
2023-04-12T22:57:45.313Z,0.13
2023-04-12T23:00:17.061Z,0.40
2023-04-12T23:02:47.733Z,0.20
2023-04-12T23:05:17.749Z,0.50
2023-04-12T23:07:46.084Z,0.68
2023-04-12T23:10:14.365Z,0.90
2023-04-12T23:12:42.596Z,0.03
2023-04-12T23:15:11.534Z,1.08
2023-04-12T23:17:39.729Z,0.28
2023-04-12T23:20:13.255Z,0.30
2023-04-12T23:22:57.351Z,1.55
2023-04-12T23:25:37.869Z,1.27
2023-04-12T23:28:12.969Z,0.52
2023-04-12T23:30:43.976Z,0.32
2023-04-12T23:33:13.088Z,0.10
2023-04-12T23:35:42.394Z,0.05
2023-04-12T23:38:15.575Z,1.13
2023-04-12T23:40:44.549Z,1.30
2023-04-12T23:43:12.856Z,1.02
2023-04-12T23:45:41.530Z,0.52
2023-04-12T23:48:09.804Z,0.00
2023-04-12T23:50:38.090Z,0.70
2023-04-12T23:53:06.843Z,0.17
2023-04-12T23:55:36.494Z,0.85
2023-04-12T23:58:04.806Z,1.55
